KLIT

Bill and Hillary Clinton National / Adams Field Airport

Little Rock, Arkansas, USA
METAR KLIT 171423Z 00000KT 7SM FEW250 05/05 A3029 RMK AO2 T00500050
Observed Flight Rules
Dec-17 @ 14:23 UTC (54 minutes ago) Visual Flight Rules
Visibility Clouds
7 miles
  • Few at 25,000' AGL
Temperatures Readings
Current 5°C / 41°F
Dewpoint 5°C / 41°F
Humidity 100%
Altimeter 30.29" Hg
Pressure 1026 hPa
Elevation 79
METAR KLIT 171423Z 00000KT 7SM FEW250 05/05 A3029 RMK AO2 T00500050
Observed Flight Rules
Dec-17 @ 14:23 UTC
(54 minutes ago)
VFR
Clouds
  • Few at 25,000' AGL
Temperature Dewpoint
5°C / 41°F 5°C / 41°F
Humidity Altimeter Pressure
100% 30.29" Hg 1026 hPa